sensor_id;sensor_type;location;lat;lon;timestamp;temperature;humidity
77523;SHT31;66637;-29.628;-49.938;2023-05-10T00:02:07;18.76;68.29
77523;SHT31;66637;-29.628;-49.938;2023-05-10T00:04:38;18.68;67.90
77523;SHT31;66637;-29.628;-49.938;2023-05-10T00:07:14;18.65;68.70
77523;SHT31;66637;-29.628;-49.938;2023-05-10T00:09:48;18.54;68.74
77523;SHT31;66637;-29.628;-49.938;2023-05-10T00:12:31;18.58;68.77
77523;SHT31;66637;-29.628;-49.938;2023-05-10T00:15:11;18.48;68.91
77523;SHT31;66637;-29.628;-49.938;2023-05-10T00:18:00;18.45;69.18
77523;SHT31;66637;-29.628;-49.938;2023-05-10T00:59:10;17.91;69.56
77523;SHT31;66637;-29.628;-49.938;2023-05-10T01:01:41;17.86;69.58
77523;SHT31;66637;-29.628;-49.938;2023-05-10T01:04:12;17.79;69.84
77523;SHT31;66637;-29.628;-49.938;2023-05-10T01:06:43;17.82;69.80
77523;SHT31;66637;-29.628;-49.938;2023-05-10T01:09:13;17.82;70.02
77523;SHT31;66637;-29.628;-49.938;2023-05-10T01:11:44;17.82;70.24
77523;SHT31;66637;-29.628;-49.938;2023-05-10T01:14:18;17.80;70.69
77523;SHT31;66637;-29.628;-49.938;2023-05-10T01:16:49;17.80;70.87
77523;SHT31;66637;-29.628;-49.938;2023-05-10T01:19:25;17.80;70.72
77523;SHT31;66637;-29.628;-49.938;2023-05-10T01:25:36;17.73;70.89
77523;SHT31;66637;-29.628;-49.938;2023-05-10T01:28:07;17.70;70.73
77523;SHT31;66637;-29.628;-49.938;2023-05-10T01:33:55;17.62;70.23
77523;SHT31;66637;-29.628;-49.938;2023-05-10T01:36:32;17.52;70.80
77523;SHT31;66637;-29.628;-49.938;2023-05-10T01:39:24;17.52;70.52
77523;SHT31;66637;-29.628;-49.938;2023-05-10T01:42:23;17.46;70.39
77523;SHT31;66637;-29.628;-49.938;2023-05-10T01:45:14;17.50;70.31
77523;SHT31;66637;-29.628;-49.938;2023-05-10T01:47:58;17.55;69.85
77523;SHT31;66637;-29.628;-49.938;2023-05-10T01:50:35;17.49;69.79
77523;SHT31;66637;-29.628;-49.938;2023-05-10T01:53:09;17.52;69.82
77523;SHT31;66637;-29.628;-49.938;2023-05-10T01:55:52;17.52;70.15
77523;SHT31;66637;-29.628;-49.938;2023-05-10T01:58:28;17.49;70.33
77523;SHT31;66637;-29.628;-49.938;2023-05-10T02:01:03;17.42;70.49
77523;SHT31;66637;-29.628;-49.938;2023-05-10T02:03:35;17.39;70.23
77523;SHT31;66637;-29.628;-49.938;2023-05-10T02:06:08;17.38;70.04
77523;SHT31;66637;-29.628;-49.938;2023-05-10T02:08:41;17.42;69.81
77523;SHT31;66637;-29.628;-49.938;2023-05-10T02:11:14;17.33;69.95
77523;SHT31;66637;-29.628;-49.938;2023-05-10T02:13:47;17.38;69.82
77523;SHT31;66637;-29.628;-49.938;2023-05-10T02:16:18;17.38;70.11
77523;SHT31;66637;-29.628;-49.938;2023-05-10T02:18:53;17.32;70.44
77523;SHT31;66637;-29.628;-49.938;2023-05-10T02:21:25;17.29;70.48
77523;SHT31;66637;-29.628;-49.938;2023-05-10T02:23:59;17.22;70.86
77523;SHT31;66637;-29.628;-49.938;2023-05-10T02:26:33;17.16;70.90
77523;SHT31;66637;-29.628;-49.938;2023-05-10T02:29:05;17.11;70.98
77523;SHT31;66637;-29.628;-49.938;2023-05-10T02:31:37;17.08;71.10
77523;SHT31;66637;-29.628;-49.938;2023-05-10T02:34:10;17.08;71.06
77523;SHT31;66637;-29.628;-49.938;2023-05-10T02:36:41;16.98;71.27
77523;SHT31;66637;-29.628;-49.938;2023-05-10T02:39:13;17.00;71.30
77523;SHT31;66637;-29.628;-49.938;2023-05-10T02:41:45;16.98;71.38
77523;SHT31;66637;-29.628;-49.938;2023-05-10T02:44:19;16.95;71.23
77523;SHT31;66637;-29.628;-49.938;2023-05-10T02:46:49;16.98;71.35
77523;SHT31;66637;-29.628;-49.938;2023-05-10T02:49:20;16.94;71.37
77523;SHT31;66637;-29.628;-49.938;2023-05-10T02:51:56;16.92;71.92
77523;SHT31;66637;-29.628;-49.938;2023-05-10T02:54:33;16.92;71.65
77523;SHT31;66637;-29.628;-49.938;2023-05-10T02:57:06;16.94;71.36
77523;SHT31;66637;-29.628;-49.938;2023-05-10T02:59:38;16.89;71.46
77523;SHT31;66637;-29.628;-49.938;2023-05-10T03:02:09;16.88;71.51
77523;SHT31;66637;-29.628;-49.938;2023-05-10T03:04:40;16.81;71.47
77523;SHT31;66637;-29.628;-49.938;2023-05-10T03:07:11;16.84;71.60
77523;SHT31;66637;-29.628;-49.938;2023-05-10T03:09:42;16.85;71.71
77523;SHT31;66637;-29.628;-49.938;2023-05-10T03:12:26;16.88;71.48
77523;SHT31;66637;-29.628;-49.938;2023-05-10T03:15:37;16.92;71.38
77523;SHT31;66637;-29.628;-49.938;2023-05-10T03:18:48;16.91;71.17
77523;SHT31;66637;-29.628;-49.938;2023-05-10T03:21:24;16.87;71.04
77523;SHT31;66637;-29.628;-49.938;2023-05-10T03:24:04;16.77;71.25
77523;SHT31;66637;-29.628;-49.938;2023-05-10T03:26:38;16.74;71.59
77523;SHT31;66637;-29.628;-49.938;2023-05-10T03:29:15;16.71;71.74
77523;SHT31;66637;-29.628;-49.938;2023-05-10T03:31:47;16.68;71.72
77523;SHT31;66637;-29.628;-49.938;2023-05-10T03:34:23;16.71;71.64
77523;SHT31;66637;-29.628;-49.938;2023-05-10T03:36:54;16.71;71.68
77523;SHT31;66637;-29.628;-49.938;2023-05-10T03:39:27;16.70;71.67
77523;SHT31;66637;-29.628;-49.938;2023-05-10T03:41:59;16.68;71.91
77523;SHT31;66637;-29.628;-49.938;2023-05-10T03:44:30;16.68;71.47
77523;SHT31;66637;-29.628;-49.938;2023-05-10T03:47:03;16.67;71.45
77523;SHT31;66637;-29.628;-49.938;2023-05-10T03:49:33;16.63;71.57
77523;SHT31;66637;-29.628;-49.938;2023-05-10T03:52:04;16.65;71.52
77523;SHT31;66637;-29.628;-49.938;2023-05-10T03:54:35;16.60;71.74
77523;SHT31;66637;-29.628;-49.938;2023-05-10T03:57:06;16.61;71.60
77523;SHT31;66637;-29.628;-49.938;2023-05-10T03:59:36;16.61;71.63
77523;SHT31;66637;-29.628;-49.938;2023-05-10T04:02:07;16.59;71.75
77523;SHT31;66637;-29.628;-49.938;2023-05-10T04:04:37;16.57;71.93
77523;SHT31;66637;-29.628;-49.938;2023-05-10T04:07:09;16.50;72.11
77523;SHT31;66637;-29.628;-49.938;2023-05-10T04:09:40;16.47;72.32
77523;SHT31;66637;-29.628;-49.938;2023-05-10T04:12:11;16.40;72.58
77523;SHT31;66637;-29.628;-49.938;2023-05-10T04:14:41;16.39;72.68
77523;SHT31;66637;-29.628;-49.938;2023-05-10T04:17:12;16.36;72.83
77523;SHT31;66637;-29.628;-49.938;2023-05-10T04:19:43;16.33;72.99
77523;SHT31;66637;-29.628;-49.938;2023-05-10T04:22:14;16.30;73.40
77523;SHT31;66637;-29.628;-49.938;2023-05-10T04:24:46;16.24;73.23
77523;SHT31;66637;-29.628;-49.938;2023-05-10T04:27:16;16.24;73.21
77523;SHT31;66637;-29.628;-49.938;2023-05-10T04:29:47;16.21;73.43
77523;SHT31;66637;-29.628;-49.938;2023-05-10T04:32:18;16.21;73.48
77523;SHT31;66637;-29.628;-49.938;2023-05-10T04:34:50;16.20;73.65
77523;SHT31;66637;-29.628;-49.938;2023-05-10T04:37:23;16.14;73.82
77523;SHT31;66637;-29.628;-49.938;2023-05-10T04:39:53;16.09;74.10
77523;SHT31;66637;-29.628;-49.938;2023-05-10T04:42:25;16.03;74.27
77523;SHT31;66637;-29.628;-49.938;2023-05-10T04:44:58;16.05;74.44
77523;SHT31;66637;-29.628;-49.938;2023-05-10T04:47:29;16.03;74.53
77523;SHT31;66637;-29.628;-49.938;2023-05-10T04:50:01;16.03;74.66
77523;SHT31;66637;-29.628;-49.938;2023-05-10T04:52:31;16.00;74.93
77523;SHT31;66637;-29.628;-49.938;2023-05-10T04:55:01;16.03;74.75
77523;SHT31;66637;-29.628;-49.938;2023-05-10T04:57:33;16.05;74.79
77523;SHT31;66637;-29.628;-49.938;2023-05-10T05:00:05;16.06;74.86
77523;SHT31;66637;-29.628;-49.938;2023-05-10T05:02:36;16.02;74.96
77523;SHT31;66637;-29.628;-49.938;2023-05-10T05:05:08;15.99;74.88
77523;SHT31;66637;-29.628;-49.938;2023-05-10T05:07:39;15.92;74.82
77523;SHT31;66637;-29.628;-49.938;2023-05-10T05:10:10;15.88;75.00
77523;SHT31;66637;-29.628;-49.938;2023-05-10T05:12:41;15.86;74.90
77523;SHT31;66637;-29.628;-49.938;2023-05-10T05:15:11;15.83;74.76
77523;SHT31;66637;-29.628;-49.938;2023-05-10T05:17:41;15.83;74.87
77523;SHT31;66637;-29.628;-49.938;2023-05-10T05:20:13;15.83;74.68
77523;SHT31;66637;-29.628;-49.938;2023-05-10T05:22:45;15.86;74.57
77523;SHT31;66637;-29.628;-49.938;2023-05-10T05:25:16;15.86;74.35
77523;SHT31;66637;-29.628;-49.938;2023-05-10T05:27:46;15.88;74.30
77523;SHT31;66637;-29.628;-49.938;2023-05-10T05:30:17;15.83;74.40
77523;SHT31;66637;-29.628;-49.938;2023-05-10T05:32:48;15.81;74.58
77523;SHT31;66637;-29.628;-49.938;2023-05-10T05:35:19;15.76;74.48
77523;SHT31;66637;-29.628;-49.938;2023-05-10T05:37:49;15.72;74.67
77523;SHT31;66637;-29.628;-49.938;2023-05-10T05:40:19;15.72;74.78
77523;SHT31;66637;-29.628;-49.938;2023-05-10T05:42:51;15.66;74.92
77523;SHT31;66637;-29.628;-49.938;2023-05-10T05:45:22;15.65;74.92
77523;SHT31;66637;-29.628;-49.938;2023-05-10T05:47:53;15.63;74.98
77523;SHT31;66637;-29.628;-49.938;2023-05-10T05:50:23;15.65;74.69
77523;SHT31;66637;-29.628;-49.938;2023-05-10T05:52:54;15.66;74.73
77523;SHT31;66637;-29.628;-49.938;2023-05-10T05:55:24;15.66;74.63
77523;SHT31;66637;-29.628;-49.938;2023-05-10T05:57:57;15.68;74.69
77523;SHT31;66637;-29.628;-49.938;2023-05-10T06:00:28;15.65;74.60
77523;SHT31;66637;-29.628;-49.938;2023-05-10T06:02:59;15.68;74.62
77523;SHT31;66637;-29.628;-49.938;2023-05-10T06:05:30;15.65;74.69
77523;SHT31;66637;-29.628;-49.938;2023-05-10T06:08:01;15.66;74.76
77523;SHT31;66637;-29.628;-49.938;2023-05-10T06:10:31;15.61;74.83
77523;SHT31;66637;-29.628;-49.938;2023-05-10T06:13:03;15.61;74.85
77523;SHT31;66637;-29.628;-49.938;2023-05-10T06:15:33;15.63;74.79
77523;SHT31;66637;-29.628;-49.938;2023-05-10T06:18:04;15.61;74.93
77523;SHT31;66637;-29.628;-49.938;2023-05-10T06:20:35;15.61;74.78
77523;SHT31;66637;-29.628;-49.938;2023-05-10T06:23:06;15.62;74.71
77523;SHT31;66637;-29.628;-49.938;2023-05-10T06:25:37;15.63;74.54
77523;SHT31;66637;-29.628;-49.938;2023-05-10T06:28:08;15.68;74.39
77523;SHT31;66637;-29.628;-49.938;2023-05-10T06:30:40;15.68;74.41
77523;SHT31;66637;-29.628;-49.938;2023-05-10T06:33:11;15.61;74.54
77523;SHT31;66637;-29.628;-49.938;2023-05-10T06:35:42;15.61;74.52
77523;SHT31;66637;-29.628;-49.938;2023-05-10T06:38:12;15.61;74.68
77523;SHT31;66637;-29.628;-49.938;2023-05-10T06:40:43;15.56;74.69
77523;SHT31;66637;-29.628;-49.938;2023-05-10T06:43:14;15.56;74.83
77523;SHT31;66637;-29.628;-49.938;2023-05-10T06:45:46;15.54;74.76
77523;SHT31;66637;-29.628;-49.938;2023-05-10T06:48:17;15.54;74.66
77523;SHT31;66637;-29.628;-49.938;2023-05-10T06:50:48;15.52;74.80
77523;SHT31;66637;-29.628;-49.938;2023-05-10T06:53:18;15.55;74.61
77523;SHT31;66637;-29.628;-49.938;2023-05-10T06:55:49;15.55;74.63
77523;SHT31;66637;-29.628;-49.938;2023-05-10T06:58:19;15.52;74.55
77523;SHT31;66637;-29.628;-49.938;2023-05-10T07:00:50;15.51;74.64
77523;SHT31;66637;-29.628;-49.938;2023-05-10T07:03:21;15.47;74.64
77523;SHT31;66637;-29.628;-49.938;2023-05-10T07:05:51;15.52;74.41
77523;SHT31;66637;-29.628;-49.938;2023-05-10T07:08:21;15.51;74.44
77523;SHT31;66637;-29.628;-49.938;2023-05-10T07:10:51;15.47;74.54
77523;SHT31;66637;-29.628;-49.938;2023-05-10T07:13:22;15.41;74.74
77523;SHT31;66637;-29.628;-49.938;2023-05-10T07:15:52;15.39;74.75
77523;SHT31;66637;-29.628;-49.938;2023-05-10T07:18:23;15.41;74.81
77523;SHT31;66637;-29.628;-49.938;2023-05-10T07:20:54;15.38;74.74
77523;SHT31;66637;-29.628;-49.938;2023-05-10T07:23:26;15.38;74.78
77523;SHT31;66637;-29.628;-49.938;2023-05-10T07:25:57;15.39;74.50
77523;SHT31;66637;-29.628;-49.938;2023-05-10T07:28:27;15.38;74.63
77523;SHT31;66637;-29.628;-49.938;2023-05-10T07:30:57;15.32;74.55
77523;SHT31;66637;-29.628;-49.938;2023-05-10T07:33:28;15.32;74.64
77523;SHT31;66637;-29.628;-49.938;2023-05-10T07:35:59;15.30;74.55
77523;SHT31;66637;-29.628;-49.938;2023-05-10T07:38:30;15.31;74.59
77523;SHT31;66637;-29.628;-49.938;2023-05-10T07:41:00;15.30;74.60
77523;SHT31;66637;-29.628;-49.938;2023-05-10T07:43:31;15.30;74.68
77523;SHT31;66637;-29.628;-49.938;2023-05-10T07:46:01;15.27;74.63
77523;SHT31;66637;-29.628;-49.938;2023-05-10T07:48:31;15.18;74.99
77523;SHT31;66637;-29.628;-49.938;2023-05-10T07:51:02;15.15;75.05
77523;SHT31;66637;-29.628;-49.938;2023-05-10T07:53:33;15.15;75.14
77523;SHT31;66637;-29.628;-49.938;2023-05-10T07:56:21;15.14;75.29
77523;SHT31;66637;-29.628;-49.938;2023-05-10T07:58:54;15.14;75.34
77523;SHT31;66637;-29.628;-49.938;2023-05-10T08:01:26;15.14;75.33
77523;SHT31;66637;-29.628;-49.938;2023-05-10T08:03:56;15.10;75.27
77523;SHT31;66637;-29.628;-49.938;2023-05-10T08:06:27;15.14;75.32
77523;SHT31;66637;-29.628;-49.938;2023-05-10T08:09:00;15.15;75.21
77523;SHT31;66637;-29.628;-49.938;2023-05-10T08:11:32;15.12;75.31
77523;SHT31;66637;-29.628;-49.938;2023-05-10T08:14:05;15.12;75.43
77523;SHT31;66637;-29.628;-49.938;2023-05-10T08:16:36;15.10;75.48
77523;SHT31;66637;-29.628;-49.938;2023-05-10T08:19:07;15.04;75.37
77523;SHT31;66637;-29.628;-49.938;2023-05-10T08:21:38;15.10;75.43
77523;SHT31;66637;-29.628;-49.938;2023-05-10T08:24:10;15.08;75.40
77523;SHT31;66637;-29.628;-49.938;2023-05-10T08:26:40;15.10;75.31
77523;SHT31;66637;-29.628;-49.938;2023-05-10T08:29:10;15.10;75.37
77523;SHT31;66637;-29.628;-49.938;2023-05-10T08:31:42;15.04;75.42
77523;SHT31;66637;-29.628;-49.938;2023-05-10T08:34:12;15.04;75.60
77523;SHT31;66637;-29.628;-49.938;2023-05-10T08:36:43;15.05;75.59
77523;SHT31;66637;-29.628;-49.938;2023-05-10T08:39:14;15.10;75.64
77523;SHT31;66637;-29.628;-49.938;2023-05-10T08:42:01;15.11;75.62
77523;SHT31;66637;-29.628;-49.938;2023-05-10T08:44:36;15.05;75.76
77523;SHT31;66637;-29.628;-49.938;2023-05-10T08:47:07;15.04;75.79
77523;SHT31;66637;-29.628;-49.938;2023-05-10T08:49:39;15.10;75.77
77523;SHT31;66637;-29.628;-49.938;2023-05-10T08:52:11;15.08;75.79
77523;SHT31;66637;-29.628;-49.938;2023-05-10T08:54:43;14.97;75.57
77523;SHT31;66637;-29.628;-49.938;2023-05-10T08:57:14;14.95;75.93
77523;SHT31;66637;-29.628;-49.938;2023-05-10T08:59:44;14.93;75.84
77523;SHT31;66637;-29.628;-49.938;2023-05-10T09:02:17;14.97;76.05
77523;SHT31;66637;-29.628;-49.938;2023-05-10T09:04:48;14.97;76.08
77523;SHT31;66637;-29.628;-49.938;2023-05-10T09:07:20;14.95;76.09
77523;SHT31;66637;-29.628;-49.938;2023-05-10T09:09:54;14.91;76.17
77523;SHT31;66637;-29.628;-49.938;2023-05-10T09:12:25;14.93;76.16
77523;SHT31;66637;-29.628;-49.938;2023-05-10T09:14:59;14.93;76.15
77523;SHT31;66637;-29.628;-49.938;2023-05-10T09:17:30;14.91;76.15
77523;SHT31;66637;-29.628;-49.938;2023-05-10T09:20:04;14.91;76.29
77523;SHT31;66637;-29.628;-49.938;2023-05-10T09:22:35;14.94;76.08
77523;SHT31;66637;-29.628;-49.938;2023-05-10T09:25:11;14.95;75.87
77523;SHT31;66637;-29.628;-49.938;2023-05-10T09:27:47;14.91;75.86
77523;SHT31;66637;-29.628;-49.938;2023-05-10T09:30:29;14.94;76.02
77523;SHT31;66637;-29.628;-49.938;2023-05-10T09:33:00;14.93;75.93
77523;SHT31;66637;-29.628;-49.938;2023-05-10T09:35:32;14.95;75.63
77523;SHT31;66637;-29.628;-49.938;2023-05-10T09:38:04;14.95;76.16
77523;SHT31;66637;-29.628;-49.938;2023-05-10T09:40:35;14.97;76.09
77523;SHT31;66637;-29.628;-49.938;2023-05-10T09:43:07;15.00;75.94
77523;SHT31;66637;-29.628;-49.938;2023-05-10T09:45:38;14.98;76.03
77523;SHT31;66637;-29.628;-49.938;2023-05-10T09:48:15;15.00;75.90
77523;SHT31;66637;-29.628;-49.938;2023-05-10T09:50:56;15.00;76.29
77523;SHT31;66637;-29.628;-49.938;2023-05-10T09:53:27;14.98;76.20
77523;SHT31;66637;-29.628;-49.938;2023-05-10T09:55:58;14.91;76.57
77523;SHT31;66637;-29.628;-49.938;2023-05-10T09:58:29;14.91;76.61
77523;SHT31;66637;-29.628;-49.938;2023-05-10T10:01:00;14.94;76.59
77523;SHT31;66637;-29.628;-49.938;2023-05-10T10:03:32;14.93;76.73
77523;SHT31;66637;-29.628;-49.938;2023-05-10T10:06:03;14.91;76.70
77523;SHT31;66637;-29.628;-49.938;2023-05-10T10:08:50;14.98;76.60
77523;SHT31;66637;-29.628;-49.938;2023-05-10T10:11:24;15.01;76.57
77523;SHT31;66637;-29.628;-49.938;2023-05-10T10:13:54;15.01;76.54
77523;SHT31;66637;-29.628;-49.938;2023-05-10T10:16:28;15.08;76.51
77523;SHT31;66637;-29.628;-49.938;2023-05-10T10:19:00;15.08;76.35
77523;SHT31;66637;-29.628;-49.938;2023-05-10T10:21:31;15.17;76.39
77523;SHT31;66637;-29.628;-49.938;2023-05-10T10:24:04;15.25;75.90
77523;SHT31;66637;-29.628;-49.938;2023-05-10T10:26:36;15.58;74.74
77523;SHT31;66637;-29.628;-49.938;2023-05-10T10:29:26;15.68;74.80
77523;SHT31;66637;-29.628;-49.938;2023-05-10T10:32:21;19.87;63.35
77523;SHT31;66637;-29.628;-49.938;2023-05-10T10:34:55;20.69;57.94
77523;SHT31;66637;-29.628;-49.938;2023-05-10T10:37:44;19.34;62.10
77523;SHT31;66637;-29.628;-49.938;2023-05-10T10:40:29;21.84;55.79
77523;SHT31;66637;-29.628;-49.938;2023-05-10T10:43:24;20.42;58.39
77523;SHT31;66637;-29.628;-49.938;2023-05-10T10:46:17;19.59;61.33
77523;SHT31;66637;-29.628;-49.938;2023-05-10T10:49:07;22.04;54.73
77523;SHT31;66637;-29.628;-49.938;2023-05-10T10:51:38;24.66;47.16
77523;SHT31;66637;-29.628;-49.938;2023-05-10T10:54:10;25.78;44.07
77523;SHT31;66637;-29.628;-49.938;2023-05-10T10:56:44;25.81;43.96
77523;SHT31;66637;-29.628;-49.938;2023-05-10T10:59:26;26.90;42.88
77523;SHT31;66637;-29.628;-49.938;2023-05-10T11:01:57;26.76;41.69
77523;SHT31;66637;-29.628;-49.938;2023-05-10T11:04:41;24.06;48.05
77523;SHT31;66637;-29.628;-49.938;2023-05-10T11:07:17;22.83;50.64
77523;SHT31;66637;-29.628;-49.938;2023-05-10T11:09:49;21.91;54.40
77523;SHT31;66637;-29.628;-49.938;2023-05-10T11:12:20;23.90;49.24
77523;SHT31;66637;-29.628;-49.938;2023-05-10T11:14:51;23.75;49.82
77523;SHT31;66637;-29.628;-49.938;2023-05-10T11:17:24;23.04;51.22
77523;SHT31;66637;-29.628;-49.938;2023-05-10T11:20:14;21.98;55.05
77523;SHT31;66637;-29.628;-49.938;2023-05-10T11:22:52;21.09;56.85
77523;SHT31;66637;-29.628;-49.938;2023-05-10T11:25:27;20.51;59.24
77523;SHT31;66637;-29.628;-49.938;2023-05-10T11:28:02;20.34;60.33
77523;SHT31;66637;-29.628;-49.938;2023-05-10T11:30:36;20.14;61.22
77523;SHT31;66637;-29.628;-49.938;2023-05-10T11:33:08;20.65;61.51
77523;SHT31;66637;-29.628;-49.938;2023-05-10T11:35:40;20.93;60.57
77523;SHT31;66637;-29.628;-49.938;2023-05-10T11:38:13;21.10;59.24
77523;SHT31;66637;-29.628;-49.938;2023-05-10T11:40:44;21.03;59.15
77523;SHT31;66637;-29.628;-49.938;2023-05-10T11:43:14;21.47;60.50
77523;SHT31;66637;-29.628;-49.938;2023-05-10T11:45:45;21.71;57.98
77523;SHT31;66637;-29.628;-49.938;2023-05-10T11:48:16;21.97;58.06
77523;SHT31;66637;-29.628;-49.938;2023-05-10T11:50:52;22.28;56.50
77523;SHT31;66637;-29.628;-49.938;2023-05-10T11:53:32;22.69;56.19
77523;SHT31;66637;-29.628;-49.938;2023-05-10T11:56:08;22.63;55.24
77523;SHT31;66637;-29.628;-49.938;2023-05-10T11:58:39;22.31;55.70
77523;SHT31;66637;-29.628;-49.938;2023-05-10T12:01:11;22.18;57.06
77523;SHT31;66637;-29.628;-49.938;2023-05-10T12:03:42;21.98;56.19
77523;SHT31;66637;-29.628;-49.938;2023-05-10T12:06:13;22.00;55.92
77523;SHT31;66637;-29.628;-49.938;2023-05-10T12:08:47;21.95;56.68
77523;SHT31;66637;-29.628;-49.938;2023-05-10T12:11:25;21.73;58.90
77523;SHT31;66637;-29.628;-49.938;2023-05-10T12:13:56;21.57;59.02
77523;SHT31;66637;-29.628;-49.938;2023-05-10T12:16:29;21.48;58.37
77523;SHT31;66637;-29.628;-49.938;2023-05-10T12:19:00;21.53;58.84
77523;SHT31;66637;-29.628;-49.938;2023-05-10T12:21:31;21.73;57.63
77523;SHT31;66637;-29.628;-49.938;2023-05-10T12:24:03;21.88;56.36
77523;SHT31;66637;-29.628;-49.938;2023-05-10T12:26:35;22.38;55.63
77523;SHT31;66637;-29.628;-49.938;2023-05-10T12:29:17;23.10;55.11
77523;SHT31;66637;-29.628;-49.938;2023-05-10T12:31:56;22.76;54.95
77523;SHT31;66637;-29.628;-49.938;2023-05-10T12:34:31;22.46;52.65
77523;SHT31;66637;-29.628;-49.938;2023-05-10T12:37:02;22.42;54.64
77523;SHT31;66637;-29.628;-49.938;2023-05-10T12:39:44;22.39;53.85
77523;SHT31;66637;-29.628;-49.938;2023-05-10T12:42:16;22.42;54.86
77523;SHT31;66637;-29.628;-49.938;2023-05-10T12:44:46;22.93;53.60
77523;SHT31;66637;-29.628;-49.938;2023-05-10T12:47:17;23.21;52.68
77523;SHT31;66637;-29.628;-49.938;2023-05-10T12:49:48;23.21;54.18
77523;SHT31;66637;-29.628;-49.938;2023-05-10T12:52:20;23.35;52.58
77523;SHT31;66637;-29.628;-49.938;2023-05-10T12:54:52;23.23;52.84
77523;SHT31;66637;-29.628;-49.938;2023-05-10T12:57:24;22.87;52.14
77523;SHT31;66637;-29.628;-49.938;2023-05-10T12:59:55;22.39;53.97
77523;SHT31;66637;-29.628;-49.938;2023-05-10T13:02:25;22.89;55.37
77523;SHT31;66637;-29.628;-49.938;2023-05-10T13:04:57;22.69;54.74
77523;SHT31;66637;-29.628;-49.938;2023-05-10T13:07:27;22.53;55.58
77523;SHT31;66637;-29.628;-49.938;2023-05-10T13:09:59;22.26;55.27
77523;SHT31;66637;-29.628;-49.938;2023-05-10T13:12:29;22.25;56.73
77523;SHT31;66637;-29.628;-49.938;2023-05-10T13:15:01;21.97;57.73
77523;SHT31;66637;-29.628;-49.938;2023-05-10T13:17:32;22.59;58.36
77523;SHT31;66637;-29.628;-49.938;2023-05-10T13:20:02;23.30;54.46
77523;SHT31;66637;-29.628;-49.938;2023-05-10T13:22:33;23.31;53.08
77523;SHT31;66637;-29.628;-49.938;2023-05-10T13:25:08;23.72;52.93
77523;SHT31;66637;-29.628;-49.938;2023-05-10T13:27:39;23.69;52.70
77523;SHT31;66637;-29.628;-49.938;2023-05-10T13:30:11;23.92;51.01
77523;SHT31;66637;-29.628;-49.938;2023-05-10T13:32:41;23.72;53.17
77523;SHT31;66637;-29.628;-49.938;2023-05-10T13:35:12;24.53;50.78
77523;SHT31;66637;-29.628;-49.938;2023-05-10T13:37:42;23.78;50.67
77523;SHT31;66637;-29.628;-49.938;2023-05-10T13:40:13;23.59;53.19
77523;SHT31;66637;-29.628;-49.938;2023-05-10T13:42:46;23.89;50.57
77523;SHT31;66637;-29.628;-49.938;2023-05-10T13:45:16;24.05;52.06
77523;SHT31;66637;-29.628;-49.938;2023-05-10T13:47:47;23.89;52.86
77523;SHT31;66637;-29.628;-49.938;2023-05-10T13:50:18;23.75;52.20
77523;SHT31;66637;-29.628;-49.938;2023-05-10T13:52:49;23.51;50.86
77523;SHT31;66637;-29.628;-49.938;2023-05-10T13:55:20;23.13;50.53
77523;SHT31;66637;-29.628;-49.938;2023-05-10T13:57:51;23.00;53.61
77523;SHT31;66637;-29.628;-49.938;2023-05-10T14:00:23;23.13;53.03
77523;SHT31;66637;-29.628;-49.938;2023-05-10T14:02:58;22.86;52.11
77523;SHT31;66637;-29.628;-49.938;2023-05-10T14:05:29;22.86;52.46
77523;SHT31;66637;-29.628;-49.938;2023-05-10T14:08:00;23.10;52.49
77523;SHT31;66637;-29.628;-49.938;2023-05-10T14:10:31;23.13;52.83
77523;SHT31;66637;-29.628;-49.938;2023-05-10T14:13:02;22.93;52.70
77523;SHT31;66637;-29.628;-49.938;2023-05-10T14:15:33;22.77;54.23
77523;SHT31;66637;-29.628;-49.938;2023-05-10T14:18:03;22.77;54.76
77523;SHT31;66637;-29.628;-49.938;2023-05-10T14:20:34;22.86;54.04
77523;SHT31;66637;-29.628;-49.938;2023-05-10T14:23:05;22.79;54.82
77523;SHT31;66637;-29.628;-49.938;2023-05-10T14:25:41;22.67;53.87
77523;SHT31;66637;-29.628;-49.938;2023-05-10T14:28:12;22.39;55.45
77523;SHT31;66637;-29.628;-49.938;2023-05-10T14:30:42;22.21;56.20
77523;SHT31;66637;-29.628;-49.938;2023-05-10T14:33:12;22.25;56.26
77523;SHT31;66637;-29.628;-49.938;2023-05-10T14:35:44;22.22;57.09
77523;SHT31;66637;-29.628;-49.938;2023-05-10T14:38:16;22.32;57.71
77523;SHT31;66637;-29.628;-49.938;2023-05-10T14:40:47;22.43;56.70
77523;SHT31;66637;-29.628;-49.938;2023-05-10T14:43:17;22.41;56.14
77523;SHT31;66637;-29.628;-49.938;2023-05-10T14:45:47;22.38;57.05
77523;SHT31;66637;-29.628;-49.938;2023-05-10T14:48:18;22.35;57.13
77523;SHT31;66637;-29.628;-49.938;2023-05-10T14:50:48;22.31;57.09
77523;SHT31;66637;-29.628;-49.938;2023-05-10T14:53:20;22.39;57.45
77523;SHT31;66637;-29.628;-49.938;2023-05-10T14:55:50;22.42;57.51
77523;SHT31;66637;-29.628;-49.938;2023-05-10T14:58:21;22.36;60.33
77523;SHT31;66637;-29.628;-49.938;2023-05-10T15:00:54;22.19;58.70
77523;SHT31;66637;-29.628;-49.938;2023-05-10T15:03:25;22.15;57.94
77523;SHT31;66637;-29.628;-49.938;2023-05-10T15:05:57;22.06;57.69
77523;SHT31;66637;-29.628;-49.938;2023-05-10T15:08:31;21.85;59.50
77523;SHT31;66637;-29.628;-49.938;2023-05-10T15:11:16;21.77;59.31
77523;SHT31;66637;-29.628;-49.938;2023-05-10T15:13:53;21.87;59.87
77523;SHT31;66637;-29.628;-49.938;2023-05-10T15:16:26;21.80;59.47
77523;SHT31;66637;-29.628;-49.938;2023-05-10T15:19:04;21.92;58.96
77523;SHT31;66637;-29.628;-49.938;2023-05-10T15:21:39;22.06;58.75
77523;SHT31;66637;-29.628;-49.938;2023-05-10T15:24:27;22.13;58.96
77523;SHT31;66637;-29.628;-49.938;2023-05-10T15:27:08;22.16;60.13
77523;SHT31;66637;-29.628;-49.938;2023-05-10T15:29:39;22.19;58.99
77523;SHT31;66637;-29.628;-49.938;2023-05-10T15:32:09;22.32;58.59
77523;SHT31;66637;-29.628;-49.938;2023-05-10T15:34:41;22.52;59.31
77523;SHT31;66637;-29.628;-49.938;2023-05-10T15:37:28;22.74;56.76
77523;SHT31;66637;-29.628;-49.938;2023-05-10T15:40:17;22.89;56.68
77523;SHT31;66637;-29.628;-49.938;2023-05-10T15:42:55;23.13;57.90
77523;SHT31;66637;-29.628;-49.938;2023-05-10T15:45:26;22.66;57.38
77523;SHT31;66637;-29.628;-49.938;2023-05-10T15:48:06;22.99;58.18
77523;SHT31;66637;-29.628;-49.938;2023-05-10T15:50:44;23.30;53.94
77523;SHT31;66637;-29.628;-49.938;2023-05-10T15:53:18;23.98;51.35
77523;SHT31;66637;-29.628;-49.938;2023-05-10T15:55:55;24.46;49.36
77523;SHT31;66637;-29.628;-49.938;2023-05-10T15:58:25;24.61;46.67
77523;SHT31;66637;-29.628;-49.938;2023-05-10T16:01:08;24.83;46.61
77523;SHT31;66637;-29.628;-49.938;2023-05-10T16:03:48;24.74;47.06
77523;SHT31;66637;-29.628;-49.938;2023-05-10T16:06:20;24.49;46.52
77523;SHT31;66637;-29.628;-49.938;2023-05-10T16:08:55;24.66;48.26
77523;SHT31;66637;-29.628;-49.938;2023-05-10T16:11:38;24.23;46.96